Página principal
METAR-TAF:

METAR-TAF

Aeroportos :

Aeroporto Internacional do Bahrain

Bahrein, Bahrein

latitude: 26-16N, longitude: 050-39E, altura: 2 m

Observação actual do tempo

O boletim foi feito há 19 minutos, às 15:30 UTC
Vento 5 kt de este
Temperatura 34°C
Humidade 67%
Pressão 1008 hPa
Visibilidade: 5000 m
Céu limpo
bruma

METAR: OBBI 231530Z 08005KT 5000 HZ SKC 34/27 Q1008 NOSIG

Hora: 18:49 (15:49 UTC)

Previsão

O boletim foi feito há 4 horas e 49 minutos, às 11:00 UTC
Previsão válida de 23 às 12 UTC a 24 às 18 UTC
Vento 5 kt com direcção variável
Visibilidade: 7000 m
Probabilidade 30% :
Temporariamente
de 23 às 20 UTC a 24 às 06 UTC
Visibilidade: 5000 m
bruma

TAF: OBBI 231100Z 2312/2418 VRB05KT 7000 NSC PROB30 TEMPO 2320/2406 5000 HZ

Observações e previsões do tempo de mais de 4000 aeroportos (mensagens METAR e TAF).

As estações disponíveis são os pontos amarelos e vermelhos sobre o mapa.

Mova o rato sobre o mapa para ver o nome da estação.

Depois clique no ponto para visualizar as observações e previsões meteorológicas.

Para alterar o mapa : clique nos botões verdes com uma cruz preta para aumentar o zoom; no botão verde com uma pitada de zoom; ou nas setas verdes para mapas adjacentes.


METAR-TAF: